sensor_id;sensor_type;location;lat;lon;timestamp;pressure;altitude;pressure_sealevel;temperature;humidity
59939;BME280;45801;51.810;19.444;2022-10-16T00:01:21;99132.38;;;14.47;70.57
59939;BME280;45801;51.810;19.444;2022-10-16T00:03:48;99131.63;;;14.45;70.45
59939;BME280;45801;51.810;19.444;2022-10-16T00:06:17;99132.78;;;14.42;70.25
59939;BME280;45801;51.810;19.444;2022-10-16T00:08:45;99141.51;;;14.39;70.46
59939;BME280;45801;51.810;19.444;2022-10-16T00:11:17;99147.45;;;14.37;70.41
59939;BME280;45801;51.810;19.444;2022-10-16T00:13:45;99149.86;;;14.35;70.39
59939;BME280;45801;51.810;19.444;2022-10-16T00:16:13;99150.83;;;14.31;70.87
59939;BME280;45801;51.810;19.444;2022-10-16T00:18:41;99150.93;;;14.29;70.67
59939;BME280;45801;51.810;19.444;2022-10-16T00:21:20;99149.55;;;14.30;70.79
59939;BME280;45801;51.810;19.444;2022-10-16T00:23:49;99147.58;;;14.35;70.58
59939;BME280;45801;51.810;19.444;2022-10-16T00:26:16;99143.52;;;14.35;70.69
59939;BME280;45801;51.810;19.444;2022-10-16T00:28:47;99141.70;;;14.33;70.87
59939;BME280;45801;51.810;19.444;2022-10-16T00:31:15;99140.75;;;14.30;71.02
59939;BME280;45801;51.810;19.444;2022-10-16T00:33:42;99139.83;;;14.29;71.14
59939;BME280;45801;51.810;19.444;2022-10-16T00:36:12;99140.29;;;14.26;70.88
59939;BME280;45801;51.810;19.444;2022-10-16T00:38:39;99142.42;;;14.21;71.03
59939;BME280;45801;51.810;19.444;2022-10-16T00:41:07;99142.14;;;14.17;70.91
59939;BME280;45801;51.810;19.444;2022-10-16T00:43:45;99149.07;;;14.12;70.87
59939;BME280;45801;51.810;19.444;2022-10-16T00:46:21;99150.23;;;14.09;71.16
59939;BME280;45801;51.810;19.444;2022-10-16T00:49:13;99151.93;;;14.13;71.51
59939;BME280;45801;51.810;19.444;2022-10-16T00:51:45;99149.77;;;14.19;71.20
59939;BME280;45801;51.810;19.444;2022-10-16T00:54:31;99148.02;;;14.19;71.27
59939;BME280;45801;51.810;19.444;2022-10-16T00:57:01;99149.16;;;14.15;71.32
59939;BME280;45801;51.810;19.444;2022-10-16T00:59:31;99154.50;;;14.11;71.60
59939;BME280;45801;51.810;19.444;2022-10-16T01:01:58;99156.11;;;14.06;71.77
59939;BME280;45801;51.810;19.444;2022-10-16T01:04:26;99150.73;;;14.02;71.52
59939;BME280;45801;51.810;19.444;2022-10-16T01:21:02;99163.52;;;13.75;72.04
59939;BME280;45801;51.810;19.444;2022-10-16T01:26:09;99161.25;;;13.70;72.21
59939;BME280;45801;51.810;19.444;2022-10-16T01:29:18;99156.80;;;13.69;72.48
59939;BME280;45801;51.810;19.444;2022-10-16T01:31:59;99156.89;;;13.65;72.64
59939;BME280;45801;51.810;19.444;2022-10-16T01:34:33;99159.66;;;13.64;72.81
59939;BME280;45801;51.810;19.444;2022-10-16T01:37:16;99156.47;;;13.63;72.88
59939;BME280;45801;51.810;19.444;2022-10-16T01:39:47;99156.41;;;13.61;73.00
59939;BME280;45801;51.810;19.444;2022-10-16T01:42:20;99158.11;;;13.59;73.05
59939;BME280;45801;51.810;19.444;2022-10-16T01:44:50;99161.19;;;13.56;72.97
59939;BME280;45801;51.810;19.444;2022-10-16T01:47:22;99162.90;;;13.54;73.12
59939;BME280;45801;51.810;19.444;2022-10-16T01:49:51;99165.67;;;13.53;73.14
59939;BME280;45801;51.810;19.444;2022-10-16T01:52:22;99165.23;;;13.50;73.68
59939;BME280;45801;51.810;19.444;2022-10-16T01:54:52;99166.83;;;13.50;73.36
59939;BME280;45801;51.810;19.444;2022-10-16T01:57:21;99169.85;;;13.51;73.44
59939;BME280;45801;51.810;19.444;2022-10-16T01:59:54;99179.02;;;13.52;73.75
59939;BME280;45801;51.810;19.444;2022-10-16T02:02:26;99181.80;;;13.51;73.69
59939;BME280;45801;51.810;19.444;2022-10-16T02:05:16;99179.17;;;13.52;73.81
59939;BME280;45801;51.810;19.444;2022-10-16T02:07:47;99182.52;;;13.51;73.72
59939;BME280;45801;51.810;19.444;2022-10-16T02:10:14;99184.77;;;13.51;73.71
59939;BME280;45801;51.810;19.444;2022-10-16T02:12:48;99188.74;;;13.48;73.67
59939;BME280;45801;51.810;19.444;2022-10-16T02:15:16;99190.38;;;13.44;73.89
59939;BME280;45801;51.810;19.444;2022-10-16T02:17:43;99188.74;;;13.42;73.79
59939;BME280;45801;51.810;19.444;2022-10-16T02:20:09;99185.88;;;13.41;73.59
59939;BME280;45801;51.810;19.444;2022-10-16T02:22:41;99185.86;;;13.40;73.62
59939;BME280;45801;51.810;19.444;2022-10-16T02:25:28;99184.80;;;13.40;73.48
59939;BME280;45801;51.810;19.444;2022-10-16T02:28:09;99191.46;;;13.39;73.98
59939;BME280;45801;51.810;19.444;2022-10-16T02:30:43;99194.29;;;13.40;74.03
59939;BME280;45801;51.810;19.444;2022-10-16T02:33:12;99197.80;;;13.39;74.14
59939;BME280;45801;51.810;19.444;2022-10-16T02:35:40;99199.56;;;13.39;74.21
59939;BME280;45801;51.810;19.444;2022-10-16T02:38:08;99199.00;;;13.38;74.14
59939;BME280;45801;51.810;19.444;2022-10-16T02:40:36;99195.97;;;13.37;74.25
59939;BME280;45801;51.810;19.444;2022-10-16T02:43:04;99199.27;;;13.35;74.23
59939;BME280;45801;51.810;19.444;2022-10-16T02:45:31;99198.85;;;13.34;74.61
59939;BME280;45801;51.810;19.444;2022-10-16T02:47:57;99199.60;;;13.31;74.88
59939;BME280;45801;51.810;19.444;2022-10-16T02:50:24;99200.28;;;13.30;74.47
59939;BME280;45801;51.810;19.444;2022-10-16T02:52:51;99202.23;;;13.30;74.46
59939;BME280;45801;51.810;19.444;2022-10-16T02:55:18;99205.20;;;13.30;74.79
59939;BME280;45801;51.810;19.444;2022-10-16T02:57:44;99206.62;;;13.30;74.59
59939;BME280;45801;51.810;19.444;2022-10-16T03:00:13;99202.85;;;13.33;74.60
59939;BME280;45801;51.810;19.444;2022-10-16T03:02:40;99204.17;;;13.35;74.83
59939;BME280;45801;51.810;19.444;2022-10-16T03:05:08;99203.00;;;13.37;74.86
59939;BME280;45801;51.810;19.444;2022-10-16T03:07:34;99204.83;;;13.39;74.94
59939;BME280;45801;51.810;19.444;2022-10-16T03:10:02;99209.84;;;13.36;75.48
59939;BME280;45801;51.810;19.444;2022-10-16T03:12:29;99214.41;;;13.36;74.95
59939;BME280;45801;51.810;19.444;2022-10-16T03:14:56;99213.61;;;13.38;74.75
59939;BME280;45801;51.810;19.444;2022-10-16T03:17:24;99212.73;;;13.39;74.95
59939;BME280;45801;51.810;19.444;2022-10-16T03:19:51;99219.90;;;13.37;75.17
59939;BME280;45801;51.810;19.444;2022-10-16T03:22:17;99224.05;;;13.35;75.02
59939;BME280;45801;51.810;19.444;2022-10-16T03:24:44;99222.48;;;13.35;74.80
59939;BME280;45801;51.810;19.444;2022-10-16T03:27:10;99219.56;;;13.38;74.79
59939;BME280;45801;51.810;19.444;2022-10-16T03:29:36;99215.77;;;13.40;75.08
59939;BME280;45801;51.810;19.444;2022-10-16T03:32:03;99217.48;;;13.44;75.22
59939;BME280;45801;51.810;19.444;2022-10-16T03:34:31;99223.23;;;13.47;75.30
59939;BME280;45801;51.810;19.444;2022-10-16T03:36:58;99225.22;;;13.50;75.27
59939;BME280;45801;51.810;19.444;2022-10-16T03:39:24;99227.02;;;13.51;75.16
59939;BME280;45801;51.810;19.444;2022-10-16T03:41:51;99227.30;;;13.54;74.94
59939;BME280;45801;51.810;19.444;2022-10-16T03:44:17;99224.53;;;13.56;74.87
59939;BME280;45801;51.810;19.444;2022-10-16T03:46:43;99229.11;;;13.56;74.76
59939;BME280;45801;51.810;19.444;2022-10-16T03:49:10;99225.12;;;13.58;74.64
59939;BME280;45801;51.810;19.444;2022-10-16T03:51:36;99226.38;;;13.59;74.79
59939;BME280;45801;51.810;19.444;2022-10-16T03:54:03;99226.91;;;13.59;74.86
59939;BME280;45801;51.810;19.444;2022-10-16T03:56:30;99228.14;;;13.58;74.70
59939;BME280;45801;51.810;19.444;2022-10-16T03:58:56;99219.73;;;13.60;74.74
59939;BME280;45801;51.810;19.444;2022-10-16T04:01:22;99210.30;;;13.63;74.88
59939;BME280;45801;51.810;19.444;2022-10-16T04:03:49;99209.83;;;13.64;75.09
59939;BME280;45801;51.810;19.444;2022-10-16T04:06:15;99211.70;;;13.67;75.05
59939;BME280;45801;51.810;19.444;2022-10-16T04:08:43;99214.02;;;13.69;74.87
59939;BME280;45801;51.810;19.444;2022-10-16T04:11:10;99216.46;;;13.68;74.95
59939;BME280;45801;51.810;19.444;2022-10-16T04:13:36;99222.58;;;13.67;74.85
59939;BME280;45801;51.810;19.444;2022-10-16T04:16:03;99224.79;;;13.64;74.90
59939;BME280;45801;51.810;19.444;2022-10-16T04:18:29;99227.58;;;13.63;74.93
59939;BME280;45801;51.810;19.444;2022-10-16T04:20:56;99231.93;;;13.62;74.85
59939;BME280;45801;51.810;19.444;2022-10-16T04:23:22;99236.40;;;13.64;74.81
59939;BME280;45801;51.810;19.444;2022-10-16T04:25:50;99239.66;;;13.67;74.95
59939;BME280;45801;51.810;19.444;2022-10-16T04:28:17;99239.39;;;13.70;74.94
59939;BME280;45801;51.810;19.444;2022-10-16T04:30:43;99238.79;;;13.73;74.98
59939;BME280;45801;51.810;19.444;2022-10-16T04:33:10;99240.63;;;13.76;74.99
59939;BME280;45801;51.810;19.444;2022-10-16T04:35:36;99244.50;;;13.76;75.06
59939;BME280;45801;51.810;19.444;2022-10-16T04:38:02;99242.57;;;13.76;75.22
59939;BME280;45801;51.810;19.444;2022-10-16T04:40:29;99247.95;;;13.79;75.04
59939;BME280;45801;51.810;19.444;2022-10-16T04:42:55;99252.45;;;13.82;74.87
59939;BME280;45801;51.810;19.444;2022-10-16T04:45:21;99252.81;;;13.83;74.91
59939;BME280;45801;51.810;19.444;2022-10-16T04:47:48;99254.95;;;13.83;74.86
59939;BME280;45801;51.810;19.444;2022-10-16T04:50:14;99255.61;;;13.82;74.77
59939;BME280;45801;51.810;19.444;2022-10-16T04:52:40;99258.05;;;13.81;74.93
59939;BME280;45801;51.810;19.444;2022-10-16T04:55:07;99259.05;;;13.79;75.18
59939;BME280;45801;51.810;19.444;2022-10-16T04:57:34;99263.29;;;13.80;75.13
59939;BME280;45801;51.810;19.444;2022-10-16T05:00:00;99256.25;;;13.80;75.07
59939;BME280;45801;51.810;19.444;2022-10-16T05:02:27;99257.73;;;13.82;75.20
59939;BME280;45801;51.810;19.444;2022-10-16T05:04:54;99252.86;;;13.84;75.28
59939;BME280;45801;51.810;19.444;2022-10-16T05:07:21;99254.90;;;13.88;75.14
59939;BME280;45801;51.810;19.444;2022-10-16T05:09:47;99249.68;;;13.90;75.17
59939;BME280;45801;51.810;19.444;2022-10-16T05:12:14;99245.14;;;13.91;75.00
59939;BME280;45801;51.810;19.444;2022-10-16T05:14:40;99240.41;;;13.92;74.76
59939;BME280;45801;51.810;19.444;2022-10-16T05:17:06;99246.59;;;13.92;75.07
59939;BME280;45801;51.810;19.444;2022-10-16T05:19:33;99249.73;;;13.91;74.82
59939;BME280;45801;51.810;19.444;2022-10-16T05:21:59;99251.71;;;13.93;74.80
59939;BME280;45801;51.810;19.444;2022-10-16T05:24:26;99249.45;;;13.94;75.05
59939;BME280;45801;51.810;19.444;2022-10-16T05:26:52;99246.34;;;13.96;75.09
59939;BME280;45801;51.810;19.444;2022-10-16T05:29:19;99248.05;;;14.00;75.03
59939;BME280;45801;51.810;19.444;2022-10-16T05:31:45;99251.30;;;14.03;75.07
59939;BME280;45801;51.810;19.444;2022-10-16T05:34:12;99253.84;;;14.05;75.18
59939;BME280;45801;51.810;19.444;2022-10-16T05:36:38;99254.95;;;14.07;75.16
59939;BME280;45801;51.810;19.444;2022-10-16T05:39:05;99259.48;;;14.05;75.08
59939;BME280;45801;51.810;19.444;2022-10-16T05:41:31;99259.98;;;14.04;75.10
59939;BME280;45801;51.810;19.444;2022-10-16T05:43:58;99262.09;;;14.04;74.91
59939;BME280;45801;51.810;19.444;2022-10-16T05:46:24;99266.39;;;14.07;74.73
59939;BME280;45801;51.810;19.444;2022-10-16T05:48:53;99267.33;;;14.09;74.54
59939;BME280;45801;51.810;19.444;2022-10-16T05:51:20;99268.77;;;14.10;74.82
59939;BME280;45801;51.810;19.444;2022-10-16T05:53:46;99270.38;;;14.11;74.93
59939;BME280;45801;51.810;19.444;2022-10-16T05:56:14;99279.07;;;14.13;74.98
59939;BME280;45801;51.810;19.444;2022-10-16T05:58:41;99279.70;;;14.17;74.83
59939;BME280;45801;51.810;19.444;2022-10-16T06:01:13;99275.27;;;14.22;74.84
59939;BME280;45801;51.810;19.444;2022-10-16T06:03:40;99273.28;;;14.26;74.79
59939;BME280;45801;51.810;19.444;2022-10-16T06:06:12;99273.21;;;14.29;74.75
59939;BME280;45801;51.810;19.444;2022-10-16T06:08:41;99282.23;;;14.30;74.70
59939;BME280;45801;51.810;19.444;2022-10-16T06:11:11;99286.77;;;14.28;74.47
59939;BME280;45801;51.810;19.444;2022-10-16T06:13:38;99290.63;;;14.28;74.34
59939;BME280;45801;51.810;19.444;2022-10-16T06:16:09;99293.83;;;14.29;74.33
59939;BME280;45801;51.810;19.444;2022-10-16T06:18:36;99298.79;;;14.30;74.40
59939;BME280;45801;51.810;19.444;2022-10-16T06:21:11;99298.74;;;14.28;74.61
59939;BME280;45801;51.810;19.444;2022-10-16T06:23:38;99298.08;;;14.30;74.60
59939;BME280;45801;51.810;19.444;2022-10-16T06:26:09;99309.05;;;14.31;74.45
59939;BME280;45801;51.810;19.444;2022-10-16T06:28:37;99313.32;;;14.33;74.44
59939;BME280;45801;51.810;19.444;2022-10-16T06:31:04;99319.17;;;14.35;74.68
59939;BME280;45801;51.810;19.444;2022-10-16T06:33:31;99322.98;;;14.38;74.53
59939;BME280;45801;51.810;19.444;2022-10-16T06:36:06;99326.24;;;14.41;74.47
59939;BME280;45801;51.810;19.444;2022-10-16T06:38:34;99327.20;;;14.44;74.37
59939;BME280;45801;51.810;19.444;2022-10-16T06:41:01;99332.53;;;14.45;74.40
59939;BME280;45801;51.810;19.444;2022-10-16T06:43:29;99337.73;;;14.48;74.33
59939;BME280;45801;51.810;19.444;2022-10-16T06:46:00;99337.41;;;14.50;74.21
59939;BME280;45801;51.810;19.444;2022-10-16T06:48:28;99341.45;;;14.49;74.41
59939;BME280;45801;51.810;19.444;2022-10-16T06:51:02;99340.98;;;14.51;74.36
59939;BME280;45801;51.810;19.444;2022-10-16T06:53:31;99342.85;;;14.54;74.43
59939;BME280;45801;51.810;19.444;2022-10-16T06:55:58;99342.96;;;14.58;74.30
59939;BME280;45801;51.810;19.444;2022-10-16T06:58:24;99346.98;;;14.62;74.48
59939;BME280;45801;51.810;19.444;2022-10-16T07:00:55;99353.64;;;14.67;74.49
59939;BME280;45801;51.810;19.444;2022-10-16T07:03:23;99357.61;;;14.71;74.23
59939;BME280;45801;51.810;19.444;2022-10-16T07:05:49;99363.67;;;14.73;74.29
59939;BME280;45801;51.810;19.444;2022-10-16T07:08:16;99363.59;;;14.76;73.89
59939;BME280;45801;51.810;19.444;2022-10-16T07:10:42;99367.36;;;14.79;73.94
59939;BME280;45801;51.810;19.444;2022-10-16T07:13:08;99363.91;;;14.75;74.06
59939;BME280;45801;51.810;19.444;2022-10-16T07:15:35;99360.73;;;14.75;73.98
59939;BME280;45801;51.810;19.444;2022-10-16T07:18:01;99356.58;;;14.77;73.93
59939;BME280;45801;51.810;19.444;2022-10-16T07:20:27;99355.55;;;14.79;74.16
59939;BME280;45801;51.810;19.444;2022-10-16T07:22:54;99349.42;;;14.80;74.24
59939;BME280;45801;51.810;19.444;2022-10-16T07:25:20;99342.45;;;14.83;74.35
59939;BME280;45801;51.810;19.444;2022-10-16T07:27:47;99339.52;;;14.85;74.24
59939;BME280;45801;51.810;19.444;2022-10-16T07:30:13;99337.84;;;14.88;74.10
59939;BME280;45801;51.810;19.444;2022-10-16T07:32:39;99331.73;;;14.90;73.95
59939;BME280;45801;51.810;19.444;2022-10-16T07:35:06;99335.11;;;14.92;73.86
59939;BME280;45801;51.810;19.444;2022-10-16T07:37:32;99331.86;;;14.95;73.65
59939;BME280;45801;51.810;19.444;2022-10-16T07:39:59;99337.42;;;14.99;73.66
59939;BME280;45801;51.810;19.444;2022-10-16T07:42:27;99344.98;;;15.05;73.92
59939;BME280;45801;51.810;19.444;2022-10-16T07:44:53;99350.84;;;15.12;74.05
59939;BME280;45801;51.810;19.444;2022-10-16T07:47:19;99360.75;;;15.20;73.70
59939;BME280;45801;51.810;19.444;2022-10-16T07:49:46;99359.55;;;15.28;73.72
59939;BME280;45801;51.810;19.444;2022-10-16T07:52:13;99365.52;;;15.34;73.73
59939;BME280;45801;51.810;19.444;2022-10-16T07:54:39;99370.25;;;15.40;73.55
59939;BME280;45801;51.810;19.444;2022-10-16T07:57:05;99377.52;;;15.40;73.20
59939;BME280;45801;51.810;19.444;2022-10-16T07:59:31;99378.09;;;15.43;73.20
59939;BME280;45801;51.810;19.444;2022-10-16T08:01:58;99382.28;;;15.47;73.04
59939;BME280;45801;51.810;19.444;2022-10-16T08:04:24;99380.45;;;15.51;72.87
59939;BME280;45801;51.810;19.444;2022-10-16T08:06:50;99379.81;;;15.54;73.15
59939;BME280;45801;51.810;19.444;2022-10-16T08:09:17;99381.13;;;15.57;72.90
59939;BME280;45801;51.810;19.444;2022-10-16T08:11:43;99386.20;;;15.62;72.99
59939;BME280;45801;51.810;19.444;2022-10-16T08:14:09;99390.73;;;15.66;73.03
59939;BME280;45801;51.810;19.444;2022-10-16T08:16:36;99389.96;;;15.71;73.05
59939;BME280;45801;51.810;19.444;2022-10-16T08:19:02;99390.51;;;15.78;72.97
59939;BME280;45801;51.810;19.444;2022-10-16T08:21:29;99392.36;;;15.82;72.91
59939;BME280;45801;51.810;19.444;2022-10-16T08:23:55;99397.80;;;15.87;72.69
59939;BME280;45801;51.810;19.444;2022-10-16T08:26:22;99406.23;;;15.93;72.86
59939;BME280;45801;51.810;19.444;2022-10-16T08:28:51;99411.11;;;15.97;72.46
59939;BME280;45801;51.810;19.444;2022-10-16T08:31:20;99407.67;;;16.01;72.22
59939;BME280;45801;51.810;19.444;2022-10-16T08:33:47;99407.52;;;16.02;72.11
59939;BME280;45801;51.810;19.444;2022-10-16T08:36:15;99407.40;;;16.04;71.98
59939;BME280;45801;51.810;19.444;2022-10-16T08:38:42;99413.10;;;16.06;72.05
59939;BME280;45801;51.810;19.444;2022-10-16T08:46:57;99414.95;;;16.25;72.24
59939;BME280;45801;51.810;19.444;2022-10-16T08:49:27;99411.56;;;16.31;71.84
59939;BME280;45801;51.810;19.444;2022-10-16T08:51:55;99413.58;;;16.33;71.82
59939;BME280;45801;51.810;19.444;2022-10-16T08:54:34;99414.65;;;16.35;71.64
59939;BME280;45801;51.810;19.444;2022-10-16T08:57:11;99415.52;;;16.34;71.63
59939;BME280;45801;51.810;19.444;2022-10-16T08:59:38;99413.27;;;16.35;71.20
59939;BME280;45801;51.810;19.444;2022-10-16T09:02:21;99412.23;;;16.36;71.10
59939;BME280;45801;51.810;19.444;2022-10-16T09:07:42;99405.09;;;16.34;71.02
59939;BME280;45801;51.810;19.444;2022-10-16T09:15:55;99395.52;;;16.49;71.76
59939;BME280;45801;51.810;19.444;2022-10-16T09:21:19;99391.17;;;16.60;71.54
59939;BME280;45801;51.810;19.444;2022-10-16T09:23:48;99396.17;;;16.70;71.53
59939;BME280;45801;51.810;19.444;2022-10-16T09:26:16;99400.49;;;16.82;71.55
59939;BME280;45801;51.810;19.444;2022-10-16T09:28:44;99397.90;;;16.93;70.97
59939;BME280;45801;51.810;19.444;2022-10-16T09:31:20;99394.35;;;17.01;70.91
59939;BME280;45801;51.810;19.444;2022-10-16T09:33:52;99396.80;;;17.08;70.52
59939;BME280;45801;51.810;19.444;2022-10-16T09:36:20;99404.00;;;17.14;70.25
59939;BME280;45801;51.810;19.444;2022-10-16T09:38:47;99403.68;;;17.16;69.75
59939;BME280;45801;51.810;19.444;2022-10-16T09:41:19;99401.73;;;17.16;69.75
59939;BME280;45801;51.810;19.444;2022-10-16T09:44:05;99406.51;;;17.16;69.30
59939;BME280;45801;51.810;19.444;2022-10-16T09:46:36;99411.11;;;17.16;69.66
59939;BME280;45801;51.810;19.444;2022-10-16T09:49:18;99409.99;;;17.22;69.92
59939;BME280;45801;51.810;19.444;2022-10-16T09:51:46;99408.05;;;17.32;69.82
59939;BME280;45801;51.810;19.444;2022-10-16T09:54:16;99412.31;;;17.41;69.98
59939;BME280;45801;51.810;19.444;2022-10-16T09:56:43;99411.05;;;17.49;69.35
59939;BME280;45801;51.810;19.444;2022-10-16T09:59:16;99410.29;;;17.57;68.87
59939;BME280;45801;51.810;19.444;2022-10-16T10:01:51;99407.63;;;17.67;69.49
59939;BME280;45801;51.810;19.444;2022-10-16T10:04:23;99415.02;;;17.75;68.89
59939;BME280;45801;51.810;19.444;2022-10-16T10:06:53;99415.77;;;17.77;67.67
59939;BME280;45801;51.810;19.444;2022-10-16T10:09:24;99412.11;;;17.80;68.11
59939;BME280;45801;51.810;19.444;2022-10-16T10:11:57;99408.10;;;17.84;67.63
59939;BME280;45801;51.810;19.444;2022-10-16T10:14:42;99411.17;;;17.88;67.04
59939;BME280;45801;51.810;19.444;2022-10-16T10:17:46;99416.10;;;17.85;67.04
59939;BME280;45801;51.810;19.444;2022-10-16T10:22:45;99412.91;;;17.85;67.22
59939;BME280;45801;51.810;19.444;2022-10-16T10:25:43;99403.64;;;17.91;67.94
59939;BME280;45801;51.810;19.444;2022-10-16T10:36:32;99415.75;;;18.05;66.90
59939;BME280;45801;51.810;19.444;2022-10-16T10:39:04;99412.96;;;18.09;67.12
59939;BME280;45801;51.810;19.444;2022-10-16T10:41:53;99409.09;;;18.11;66.70
59939;BME280;45801;51.810;19.444;2022-10-16T10:50:29;99406.17;;;18.17;67.30
59939;BME280;45801;51.810;19.444;2022-10-16T10:53:09;99406.92;;;18.20;66.70
59939;BME280;45801;51.810;19.444;2022-10-16T10:56:04;99406.43;;;18.22;66.69
59939;BME280;45801;51.810;19.444;2022-10-16T10:59:01;99408.58;;;18.23;66.99
59939;BME280;45801;51.810;19.444;2022-10-16T11:01:54;99411.59;;;18.23;67.09
59939;BME280;45801;51.810;19.444;2022-10-16T11:07:05;99408.61;;;18.26;67.22
59939;BME280;45801;51.810;19.444;2022-10-16T11:09:37;99403.68;;;18.28;66.74
59939;BME280;45801;51.810;19.444;2022-10-16T11:12:12;99397.84;;;18.29;66.76
59939;BME280;45801;51.810;19.444;2022-10-16T11:14:48;99397.23;;;18.35;66.75
59939;BME280;45801;51.810;19.444;2022-10-16T11:17:23;99395.89;;;18.41;66.45
59939;BME280;45801;51.810;19.444;2022-10-16T11:20:01;99396.17;;;18.49;66.39
59939;BME280;45801;51.810;19.444;2022-10-16T11:22:38;99397.89;;;18.57;65.65
59939;BME280;45801;51.810;19.444;2022-10-16T11:25:15;99392.54;;;18.68;66.02
59939;BME280;45801;51.810;19.444;2022-10-16T11:27:51;99391.79;;;18.78;66.24
59939;BME280;45801;51.810;19.444;2022-10-16T11:30:27;99391.08;;;18.91;66.13
59939;BME280;45801;51.810;19.444;2022-10-16T11:32:56;99392.65;;;19.03;65.92
59939;BME280;45801;51.810;19.444;2022-10-16T11:38:03;99388.86;;;19.29;65.43
59939;BME280;45801;51.810;19.444;2022-10-16T11:40:38;99386.30;;;19.39;64.70
59939;BME280;45801;51.810;19.444;2022-10-16T11:43:19;99384.25;;;19.47;64.55
59939;BME280;45801;51.810;19.444;2022-10-16T11:45:59;99390.73;;;19.54;64.42
59939;BME280;45801;51.810;19.444;2022-10-16T11:48:48;99387.56;;;19.59;64.06
59939;BME280;45801;51.810;19.444;2022-10-16T11:51:31;99393.22;;;19.56;62.87
59939;BME280;45801;51.810;19.444;2022-10-16T11:54:20;99401.85;;;19.49;63.42
59939;BME280;45801;51.810;19.444;2022-10-16T11:56:52;99408.52;;;19.42;63.45
59939;BME280;45801;51.810;19.444;2022-10-16T11:59:35;99414.70;;;19.37;63.54
59939;BME280;45801;51.810;19.444;2022-10-16T12:05:18;99411.35;;;19.22;64.07
59939;BME280;45801;51.810;19.444;2022-10-16T12:08:04;99411.44;;;19.15;64.19
59939;BME280;45801;51.810;19.444;2022-10-16T12:10:33;99417.92;;;19.08;64.27
59939;BME280;45801;51.810;19.444;2022-10-16T12:16:04;99418.40;;;18.89;64.39
59939;BME280;45801;51.810;19.444;2022-10-16T12:18:30;99422.72;;;18.82;64.71
59939;BME280;45801;51.810;19.444;2022-10-16T12:20:57;99418.71;;;18.74;64.76
59939;BME280;45801;51.810;19.444;2022-10-16T12:23:39;99418.65;;;18.70;65.17
59939;BME280;45801;51.810;19.444;2022-10-16T12:26:12;99416.65;;;18.67;65.23
59939;BME280;45801;51.810;19.444;2022-10-16T12:28:39;99417.52;;;18.65;65.59
59939;BME280;45801;51.810;19.444;2022-10-16T12:31:08;99420.72;;;18.66;65.69
59939;BME280;45801;51.810;19.444;2022-10-16T12:33:53;99419.84;;;18.66;65.72
59939;BME280;45801;51.810;19.444;2022-10-16T12:36:32;99411.13;;;18.65;65.43
59939;BME280;45801;51.810;19.444;2022-10-16T12:38:59;99402.96;;;18.65;65.64
59939;BME280;45801;51.810;19.444;2022-10-16T12:41:33;99404.19;;;18.63;65.38
59939;BME280;45801;51.810;19.444;2022-10-16T12:44:01;99408.43;;;18.63;65.47
59939;BME280;45801;51.810;19.444;2022-10-16T12:54:05;99412.67;;;18.75;65.75
59939;BME280;45801;51.810;19.444;2022-10-16T13:02:19;99423.41;;;18.82;65.80
59939;BME280;45801;51.810;19.444;2022-10-16T13:05:15;99430.52;;;18.81;65.57
59939;BME280;45801;51.810;19.444;2022-10-16T13:16:42;99417.73;;;18.82;65.82
59939;BME280;45801;51.810;19.444;2022-10-16T13:19:28;99415.95;;;18.81;65.59
59939;BME280;45801;51.810;19.444;2022-10-16T13:22:10;99417.19;;;18.80;65.70
59939;BME280;45801;51.810;19.444;2022-10-16T13:24:50;99423.74;;;18.80;65.80
59939;BME280;45801;51.810;19.444;2022-10-16T13:30:18;99430.23;;;18.73;65.68
59939;BME280;45801;51.810;19.444;2022-10-16T13:33:16;99432.37;;;18.74;65.97
59939;BME280;45801;51.810;19.444;2022-10-16T13:35:52;99437.52;;;18.75;66.13
59939;BME280;45801;51.810;19.444;2022-10-16T13:38:24;99438.88;;;18.70;65.89
59939;BME280;45801;51.810;19.444;2022-10-16T13:40:54;99429.65;;;18.70;65.93
59939;BME280;45801;51.810;19.444;2022-10-16T13:43:39;99434.25;;;18.69;66.09
59939;BME280;45801;51.810;19.444;2022-10-16T13:46:13;99436.90;;;18.69;65.73
59939;BME280;45801;51.810;19.444;2022-10-16T13:48:40;99438.65;;;18.67;65.90
59939;BME280;45801;51.810;19.444;2022-10-16T13:51:14;99444.52;;;18.68;65.89
59939;BME280;45801;51.810;19.444;2022-10-16T13:53:42;99450.03;;;18.68;65.90
59939;BME280;45801;51.810;19.444;2022-10-16T13:56:29;99453.72;;;18.66;65.71
59939;BME280;45801;51.810;19.444;2022-10-16T13:59:04;99457.23;;;18.64;65.82
59939;BME280;45801;51.810;19.444;2022-10-16T14:01:41;99457.55;;;18.61;66.13
59939;BME280;45801;51.810;19.444;2022-10-16T14:04:10;99457.69;;;18.58;66.02
59939;BME280;45801;51.810;19.444;2022-10-16T14:06:41;99461.55;;;18.55;66.01
59939;BME280;45801;51.810;19.444;2022-10-16T14:09:29;99462.20;;;18.51;66.17
59939;BME280;45801;51.810;19.444;2022-10-16T14:12:02;99465.16;;;18.48;66.17
59939;BME280;45801;51.810;19.444;2022-10-16T14:14:41;99470.09;;;18.46;66.61
59939;BME280;45801;51.810;19.444;2022-10-16T14:17:26;99484.27;;;18.45;66.57
59939;BME280;45801;51.810;19.444;2022-10-16T14:19:55;99491.87;;;18.43;66.61
59939;BME280;45801;51.810;19.444;2022-10-16T14:25:02;99491.67;;;18.41;66.55
59939;BME280;45801;51.810;19.444;2022-10-16T14:27:34;99489.36;;;18.41;66.52
59939;BME280;45801;51.810;19.444;2022-10-16T14:30:23;99492.39;;;18.42;66.69
59939;BME280;45801;51.810;19.444;2022-10-16T14:32:58;99493.34;;;18.46;66.91
59939;BME280;45801;51.810;19.444;2022-10-16T14:37:55;99497.73;;;18.54;66.66
59939;BME280;45801;51.810;19.444;2022-10-16T14:40:25;99498.30;;;18.58;66.83
59939;BME280;45801;51.810;19.444;2022-10-16T14:42:53;99502.45;;;18.62;66.87